createdAt,value
2023-03-05T00:01:26.467Z,5.10
2023-03-05T00:03:55.843Z,6.20
2023-03-05T00:06:25.341Z,5.45
2023-03-05T00:08:53.706Z,5.32
2023-03-05T00:11:21.580Z,5.30
2023-03-05T00:13:52.403Z,5.47
2023-03-05T00:16:20.964Z,4.95
2023-03-05T00:18:49.387Z,5.43
2023-03-05T00:21:31.078Z,6.22
2023-03-05T00:24:01.647Z,5.40
2023-03-05T00:26:31.016Z,5.15
2023-03-05T00:28:59.041Z,5.13
2023-03-05T00:31:32.375Z,5.35
2023-03-05T00:34:02.643Z,5.43
2023-03-05T00:36:30.271Z,5.43
2023-03-05T00:38:58.269Z,5.20
2023-03-05T00:41:26.113Z,5.57
2023-03-05T00:43:54.144Z,5.60
2023-03-05T00:46:23.104Z,6.20
2023-03-05T00:48:50.653Z,5.57
2023-03-05T00:51:19.180Z,5.72
2023-03-05T00:53:46.891Z,5.30
2023-03-05T00:56:14.391Z,4.68
2023-03-05T00:58:41.834Z,5.32
2023-03-05T01:03:37.124Z,5.30
2023-03-05T01:06:11.082Z,5.80
2023-03-05T01:08:39.130Z,5.35
2023-03-05T01:11:07.683Z,7.25
2023-03-05T01:13:35.709Z,6.57
2023-03-05T01:16:04.456Z,8.60
2023-03-05T01:18:32.149Z,8.30
2023-03-05T01:20:59.821Z,7.57
2023-03-05T01:23:27.448Z,8.27
2023-03-05T01:28:23.775Z,6.40
2023-03-05T01:30:51.560Z,5.93
2023-03-05T01:33:19.246Z,5.82
2023-03-05T01:35:48.322Z,5.93
2023-03-05T01:38:16.558Z,5.75
2023-03-05T01:40:44.350Z,5.40
2023-03-05T01:43:12.103Z,5.47
2023-03-05T01:46:00.585Z,5.70
2023-03-05T01:48:28.345Z,5.38
2023-03-05T01:50:55.776Z,5.40
2023-03-05T01:55:50.926Z,4.90
2023-03-05T01:58:18.935Z,5.07
2023-03-05T02:00:48.561Z,4.97
2023-03-05T02:03:16.745Z,5.43
2023-03-05T02:05:44.633Z,5.05
2023-03-05T02:08:18.669Z,4.97
2023-03-05T02:10:52.819Z,5.50
2023-03-05T02:13:23.903Z,5.10
2023-03-05T02:15:54.127Z,5.53
2023-03-05T02:18:23.448Z,5.28
2023-03-05T02:20:52.513Z,5.10
2023-03-05T02:23:21.343Z,5.25
2023-03-05T02:25:49.335Z,5.75
2023-03-05T02:28:38.336Z,5.25
2023-03-05T02:31:25.804Z,5.40
2023-03-05T02:33:56.106Z,4.82
2023-03-05T02:36:26.090Z,5.05
2023-03-05T02:38:57.157Z,5.63
2023-03-05T02:41:25.499Z,5.88
2023-03-05T02:43:54.103Z,5.20
2023-03-05T02:48:50.046Z,4.80
2023-03-05T02:51:18.254Z,5.47
2023-03-05T02:53:46.883Z,5.22
2023-03-05T02:56:15.007Z,5.47
2023-03-05T02:58:43.014Z,5.60
2023-03-05T03:01:10.771Z,6.15
2023-03-05T03:03:38.497Z,5.70
2023-03-05T03:06:10.122Z,6.10
2023-03-05T03:08:37.650Z,5.40
2023-03-05T03:13:35.977Z,6.05
2023-03-05T03:18:35.326Z,5.88
2023-03-05T03:21:03.373Z,6.30
2023-03-05T03:23:31.820Z,6.10
2023-03-05T03:25:59.459Z,6.90
2023-03-05T03:28:27.037Z,6.05
2023-03-05T03:33:23.066Z,6.28
2023-03-05T03:38:17.911Z,6.22
2023-03-05T03:45:44.560Z,6.00
2023-03-05T03:48:12.095Z,6.28
2023-03-05T03:53:09.410Z,6.32
2023-03-05T03:55:36.785Z,6.15
2023-03-05T04:00:31.850Z,6.10
2023-03-05T04:02:59.538Z,5.60
2023-03-05T04:07:54.895Z,6.07
2023-03-05T04:10:22.370Z,6.60
2023-03-05T04:12:49.876Z,6.80
2023-03-05T04:15:17.519Z,6.88
2023-03-05T04:17:45.130Z,6.55
2023-03-05T04:20:12.819Z,7.20
2023-03-05T04:22:40.365Z,6.40
2023-03-05T04:27:37.670Z,6.70
2023-03-05T04:30:05.764Z,7.38
2023-03-05T04:32:33.318Z,7.15
2023-03-05T04:35:00.901Z,6.90
2023-03-05T04:37:28.987Z,8.10
2023-03-05T04:39:56.780Z,7.38
2023-03-05T04:42:24.880Z,7.93
2023-03-05T04:44:52.432Z,7.50
2023-03-05T04:47:20.001Z,7.72
2023-03-05T04:54:44.177Z,7.25
2023-03-05T04:57:11.876Z,7.95
2023-03-05T04:59:39.325Z,7.45
2023-03-05T05:02:06.940Z,7.13
2023-03-05T05:04:36.159Z,7.65
2023-03-05T05:07:04.892Z,7.95
2023-03-05T05:09:32.308Z,7.20
2023-03-05T05:16:54.204Z,6.90
2023-03-05T05:21:49.028Z,7.63
2023-03-05T05:24:16.460Z,7.43
2023-03-05T05:26:44.197Z,7.80
2023-03-05T05:29:11.644Z,8.00
2023-03-05T05:34:06.565Z,7.47
2023-03-05T05:41:28.631Z,7.22
2023-03-05T05:46:24.785Z,6.90
2023-03-05T05:48:52.269Z,7.32
2023-03-05T05:53:48.615Z,7.35
2023-03-05T05:56:17.680Z,7.93
2023-03-05T05:58:47.520Z,7.47
2023-03-05T06:01:21.101Z,7.88
2023-03-05T06:03:48.955Z,7.80
2023-03-05T06:06:19.159Z,7.35
2023-03-05T06:08:46.922Z,7.75
2023-03-05T06:11:16.323Z,7.25
2023-03-05T06:13:45.390Z,7.90
2023-03-05T06:16:15.962Z,7.60
2023-03-05T06:18:43.604Z,6.78
2023-03-05T06:23:39.661Z,6.95
2023-03-05T06:26:08.466Z,6.90
2023-03-05T06:28:36.117Z,6.78
2023-03-05T06:31:08.109Z,6.72
2023-03-05T06:33:36.769Z,6.82
2023-03-05T06:36:09.305Z,6.38
2023-03-05T06:38:38.056Z,6.80
2023-03-05T06:41:11.689Z,6.07
2023-03-05T06:43:41.927Z,6.53
2023-03-05T06:46:14.892Z,6.60
2023-03-05T06:48:43.393Z,6.45
2023-03-05T06:51:16.581Z,6.82
2023-03-05T06:53:47.738Z,6.57
2023-03-05T06:56:18.040Z,6.38
2023-03-05T06:58:47.911Z,6.47
2023-03-05T07:01:16.221Z,6.20
2023-03-05T07:03:44.204Z,6.20
2023-03-05T07:06:14.218Z,6.07
2023-03-05T07:08:41.814Z,6.13
2023-03-05T07:11:19.008Z,5.85
2023-03-05T07:16:20.426Z,5.78
2023-03-05T07:18:48.977Z,6.15
2023-03-05T07:21:22.907Z,6.30
2023-03-05T07:23:53.005Z,5.85
2023-03-05T07:26:21.093Z,6.13
2023-03-05T07:28:49.075Z,6.03
2023-03-05T07:31:19.369Z,6.15
2023-03-05T07:33:51.153Z,6.15
2023-03-05T07:36:20.155Z,6.55
2023-03-05T07:38:47.732Z,6.63
2023-03-05T07:41:22.053Z,6.00
2023-03-05T07:43:52.590Z,6.03
2023-03-05T07:46:23.438Z,6.15
2023-03-05T07:48:51.253Z,6.00
2023-03-05T07:51:20.271Z,6.25
2023-03-05T07:53:49.716Z,6.22
2023-03-05T07:56:26.009Z,5.72
2023-03-05T07:58:53.541Z,6.00
2023-03-05T08:03:48.522Z,6.00
2023-03-05T08:06:16.353Z,6.82
2023-03-05T08:08:43.916Z,6.13
2023-03-05T08:13:40.643Z,6.13
2023-03-05T08:16:14.211Z,5.90
2023-03-05T08:18:42.832Z,6.72
2023-03-05T08:21:30.971Z,5.60
2023-03-05T08:23:59.034Z,5.82
2023-03-05T08:26:29.265Z,5.68
2023-03-05T08:28:57.362Z,5.45
2023-03-05T08:31:26.979Z,5.32
2023-03-05T08:33:57.290Z,5.88
2023-03-05T08:36:24.886Z,7.47
2023-03-05T08:38:53.186Z,6.07
2023-03-05T08:41:20.608Z,5.88
2023-03-05T08:46:16.904Z,5.57
2023-03-05T08:48:44.831Z,6.00
2023-03-05T08:51:15.153Z,6.10
2023-03-05T08:53:44.218Z,6.00
2023-03-05T08:56:12.419Z,6.05
2023-03-05T08:58:40.058Z,6.20
2023-03-05T09:01:07.526Z,6.03
2023-03-05T09:03:35.141Z,5.78
2023-03-05T09:06:06.049Z,6.15
2023-03-05T09:08:33.769Z,6.15
2023-03-05T09:11:06.792Z,6.00
2023-03-05T09:13:34.928Z,5.88
2023-03-05T09:16:11.700Z,6.07
2023-03-05T09:18:40.340Z,5.80
2023-03-05T09:21:09.859Z,6.10
2023-03-05T09:23:37.956Z,6.03
2023-03-05T09:26:07.333Z,6.65
2023-03-05T09:28:35.391Z,6.32
2023-03-05T09:31:04.544Z,5.80
2023-03-05T09:33:36.777Z,6.00
2023-03-05T09:36:05.750Z,6.40
2023-03-05T09:38:33.213Z,6.45
2023-03-05T09:43:52.578Z,6.57
2023-03-05T09:46:48.298Z,6.22
2023-03-05T09:49:58.783Z,6.18
2023-03-05T09:52:50.501Z,5.90
2023-03-05T09:55:29.576Z,6.70
2023-03-05T09:58:03.453Z,6.22
2023-03-05T10:00:39.106Z,6.07
2023-03-05T10:03:25.851Z,6.18
2023-03-05T10:06:14.903Z,6.10
2023-03-05T10:08:52.015Z,5.63
2023-03-05T10:11:37.141Z,5.88
2023-03-05T10:14:05.108Z,6.20
2023-03-05T10:16:57.033Z,5.90
2023-03-05T10:19:24.545Z,6.53
2023-03-05T10:24:51.141Z,5.82
2023-03-05T10:27:45.469Z,5.88
2023-03-05T10:30:32.169Z,6.10
2023-03-05T10:33:20.230Z,6.35
2023-03-05T10:36:06.332Z,5.70
2023-03-05T10:39:00.070Z,5.95
2023-03-05T10:41:45.316Z,6.05
2023-03-05T10:44:30.772Z,5.45
2023-03-05T10:47:00.055Z,6.55
2023-03-05T10:49:32.414Z,5.80
2023-03-05T10:52:05.784Z,5.95
2023-03-05T10:54:35.948Z,6.00
2023-03-05T10:57:12.783Z,6.35
2023-03-05T10:59:50.030Z,5.75
2023-03-05T11:04:47.284Z,5.65
2023-03-05T11:07:14.851Z,5.63
2023-03-05T11:10:03.863Z,5.85
2023-03-05T11:12:35.835Z,5.57
2023-03-05T11:15:15.064Z,5.57
2023-03-05T11:17:44.857Z,5.60
2023-03-05T11:20:27.851Z,6.30
2023-03-05T11:23:15.650Z,5.90
2023-03-05T11:25:58.462Z,5.80
2023-03-05T11:28:33.560Z,5.95
2023-03-05T11:31:08.280Z,6.53
2023-03-05T11:33:38.155Z,6.50
2023-03-05T11:36:34.738Z,6.13
2023-03-05T11:39:10.324Z,6.00
2023-03-05T11:41:49.026Z,6.20
2023-03-05T11:44:34.511Z,6.30
2023-03-05T11:47:24.980Z,6.38
2023-03-05T11:50:03.346Z,6.18
2023-03-05T11:52:42.511Z,6.07
2023-03-05T11:55:15.743Z,6.68
2023-03-05T11:57:50.917Z,6.13
2023-03-05T12:00:24.769Z,6.18
2023-03-05T12:02:56.816Z,6.30
2023-03-05T12:05:24.574Z,6.32
2023-03-05T12:07:55.723Z,6.40
2023-03-05T12:10:25.055Z,6.05
2023-03-05T12:13:00.251Z,5.95
2023-03-05T12:15:47.610Z,6.40
2023-03-05T12:18:45.910Z,5.97
2023-03-05T12:21:28.317Z,5.20
2023-03-05T12:24:04.989Z,5.80
2023-03-05T12:26:58.362Z,5.70
2023-03-05T12:29:42.751Z,5.30
2023-03-05T12:32:22.388Z,5.55
2023-03-05T12:34:58.844Z,5.03
2023-03-05T12:37:26.437Z,5.35
2023-03-05T12:42:28.590Z,5.60
2023-03-05T12:47:48.239Z,5.00
2023-03-05T12:50:27.750Z,5.53
2023-03-05T12:53:07.299Z,5.50
2023-03-05T12:56:12.703Z,5.45
2023-03-05T12:58:48.560Z,5.18
2023-03-05T13:01:38.508Z,4.93
2023-03-05T13:04:15.297Z,5.90
2023-03-05T13:06:43.105Z,4.80
2023-03-05T13:09:17.228Z,4.50
2023-03-05T13:11:48.807Z,4.55
2023-03-05T13:14:37.127Z,5.40
2023-03-05T13:17:27.378Z,5.20
2023-03-05T13:19:55.842Z,4.60
2023-03-05T13:22:24.762Z,4.50
2023-03-05T13:25:15.442Z,4.82
2023-03-05T13:27:43.686Z,4.88
2023-03-05T13:30:23.553Z,4.55
2023-03-05T13:32:55.037Z,4.25
2023-03-05T13:35:23.250Z,4.70
2023-03-05T13:37:51.079Z,4.28
2023-03-05T13:40:20.706Z,5.20
2023-03-05T13:42:48.138Z,5.60
2023-03-05T13:47:58.972Z,5.07
2023-03-05T13:50:36.803Z,4.60
2023-03-05T13:53:26.430Z,4.97
2023-03-05T13:55:58.029Z,4.82
2023-03-05T13:58:52.593Z,5.32
2023-03-05T14:01:31.228Z,4.70
2023-03-05T14:04:08.320Z,4.80
2023-03-05T14:06:42.476Z,5.25
2023-03-05T14:09:23.771Z,5.38
2023-03-05T14:12:01.971Z,5.03
2023-03-05T14:14:34.609Z,5.15
2023-03-05T14:17:32.449Z,5.07
2023-03-05T14:20:14.650Z,4.93
2023-03-05T14:22:45.470Z,4.97
2023-03-05T14:25:45.664Z,4.97
2023-03-05T14:28:19.122Z,5.32
2023-03-05T14:30:48.306Z,5.10
2023-03-05T14:33:26.127Z,5.25
2023-03-05T14:35:54.474Z,5.47
2023-03-05T14:38:25.378Z,5.32
2023-03-05T14:40:52.905Z,5.05
2023-03-05T14:45:48.123Z,5.63
2023-03-05T14:48:20.361Z,5.35
2023-03-05T14:50:58.373Z,5.57
2023-03-05T14:53:29.636Z,5.00
2023-03-05T14:55:57.412Z,4.75
2023-03-05T14:58:28.064Z,5.03
2023-03-05T15:00:56.986Z,5.72
2023-03-05T15:03:25.150Z,5.78
2023-03-05T15:05:55.407Z,6.20
2023-03-05T15:08:29.406Z,4.93
2023-03-05T15:10:57.620Z,5.50
2023-03-05T15:13:25.684Z,5.40
2023-03-05T15:15:55.170Z,5.50
2023-03-05T15:18:23.823Z,5.50
2023-03-05T15:20:54.937Z,5.80
2023-03-05T15:23:22.333Z,5.85
2023-03-05T15:28:17.717Z,5.35
2023-03-05T15:30:47.510Z,5.47
2023-03-05T15:33:16.751Z,4.72
2023-03-05T15:35:45.008Z,5.22
2023-03-05T15:38:12.580Z,5.75
2023-03-05T15:40:40.029Z,5.20
2023-03-05T15:43:07.617Z,5.80
2023-03-05T15:48:02.383Z,5.32
2023-03-05T15:50:29.885Z,5.32
2023-03-05T15:52:58.115Z,6.25
2023-03-05T15:55:25.745Z,5.50
2023-03-05T15:57:54.132Z,5.72
2023-03-05T16:00:29.506Z,6.07
2023-03-05T16:02:56.993Z,5.50
2023-03-05T16:07:53.696Z,5.78
2023-03-05T16:10:25.327Z,5.43
2023-03-05T16:13:04.139Z,6.38
2023-03-05T16:15:33.170Z,5.32
2023-03-05T16:18:04.527Z,5.82
2023-03-05T16:20:32.349Z,6.03
2023-03-05T16:22:59.983Z,5.50
2023-03-05T16:25:27.439Z,5.53
2023-03-05T16:32:50.481Z,5.65
2023-03-05T16:35:18.933Z,5.88
2023-03-05T16:37:46.375Z,5.50
2023-03-05T16:42:42.248Z,5.88
2023-03-05T16:45:11.430Z,5.22
2023-03-05T16:47:39.643Z,5.38
2023-03-05T16:50:09.045Z,6.03
2023-03-05T16:52:36.663Z,5.38
2023-03-05T16:55:05.833Z,5.32
2023-03-05T16:57:33.370Z,5.72
2023-03-05T17:00:02.594Z,5.68
2023-03-05T17:02:30.263Z,5.40
2023-03-05T17:04:58.180Z,5.28
2023-03-05T17:07:26.620Z,5.60
2023-03-05T17:09:54.655Z,5.30
2023-03-05T17:12:23.160Z,5.28
2023-03-05T17:14:50.600Z,5.22
2023-03-05T17:19:45.262Z,5.13
2023-03-05T17:22:12.984Z,5.68
2023-03-05T17:24:42.966Z,5.20
2023-03-05T17:27:10.792Z,6.80
2023-03-05T17:29:38.316Z,5.78
2023-03-05T17:34:36.733Z,5.47
2023-03-05T17:37:05.464Z,5.85
2023-03-05T17:39:33.118Z,5.78
2023-03-05T17:42:01.107Z,6.20
2023-03-05T17:44:28.578Z,5.68
2023-03-05T17:46:56.216Z,7.10
2023-03-05T17:49:23.676Z,5.88
2023-03-05T17:54:18.740Z,5.47
2023-03-05T17:56:48.111Z,5.82
2023-03-05T17:59:16.504Z,6.28
2023-03-05T18:01:44.064Z,6.05
2023-03-05T18:06:39.108Z,5.30
2023-03-05T18:09:06.882Z,6.15
2023-03-05T18:11:34.538Z,6.00
2023-03-05T18:14:02.545Z,6.97
2023-03-05T18:16:30.481Z,5.20
2023-03-05T18:18:57.935Z,6.15
2023-03-05T18:21:28.080Z,6.10
2023-03-05T18:23:55.690Z,5.60
2023-03-05T18:26:23.098Z,5.88
2023-03-05T18:28:50.459Z,5.72
2023-03-05T18:31:18.335Z,5.55
2023-03-05T18:33:45.797Z,5.30
2023-03-05T18:36:15.073Z,6.07
2023-03-05T18:38:43.065Z,5.40
2023-03-05T18:41:22.877Z,5.20
2023-03-05T18:43:50.849Z,6.10
2023-03-05T18:46:18.457Z,5.50
2023-03-05T18:48:48.107Z,6.15
2023-03-05T18:51:20.294Z,5.78
2023-03-05T18:53:48.328Z,5.18
2023-03-05T18:56:15.759Z,5.88
2023-03-05T19:03:37.835Z,4.78
2023-03-05T19:08:35.782Z,5.40
2023-03-05T19:11:03.849Z,5.75
2023-03-05T19:13:43.836Z,5.28
2023-03-05T19:16:29.399Z,6.10
2023-03-05T19:19:20.311Z,5.75
2023-03-05T19:21:50.027Z,6.13
2023-03-05T19:24:17.806Z,5.93
2023-03-05T19:26:46.319Z,5.65
2023-03-05T19:29:14.945Z,5.80
2023-03-05T19:31:42.664Z,5.45
2023-03-05T19:34:10.351Z,5.95
2023-03-05T19:36:37.919Z,5.97
2023-03-05T19:41:35.188Z,5.72
2023-03-05T19:44:04.383Z,5.22
2023-03-05T19:46:32.300Z,5.07
2023-03-05T19:48:59.837Z,4.78
2023-03-05T19:51:27.551Z,5.10
2023-03-05T19:53:54.984Z,5.70
2023-03-05T19:58:49.813Z,6.25
2023-03-05T20:01:20.699Z,5.93
2023-03-05T20:03:50.734Z,6.63
2023-03-05T20:06:18.445Z,6.43
2023-03-05T20:08:46.767Z,6.45
2023-03-05T20:11:16.267Z,5.95
2023-03-05T20:13:44.364Z,6.65
2023-03-05T20:16:19.172Z,5.90
2023-03-05T20:18:47.313Z,6.25
2023-03-05T20:21:21.269Z,6.60
2023-03-05T20:23:50.509Z,7.07
2023-03-05T20:26:18.619Z,7.13
2023-03-05T20:28:46.456Z,7.15
2023-03-05T20:31:14.038Z,6.20
2023-03-05T20:33:41.540Z,6.53
2023-03-05T20:38:36.793Z,6.13
2023-03-05T20:41:09.236Z,6.60
2023-03-05T20:43:40.891Z,6.20
2023-03-05T20:46:30.230Z,6.72
2023-03-05T20:49:00.622Z,6.65
2023-03-05T20:51:30.888Z,7.25
2023-03-05T20:54:02.645Z,7.35
2023-03-05T20:56:32.581Z,7.45
2023-03-05T20:59:03.910Z,9.63
2023-03-05T21:01:33.749Z,8.43
2023-03-05T21:04:01.591Z,9.57
2023-03-05T21:06:31.006Z,9.20
2023-03-05T21:08:58.811Z,10.18
2023-03-05T21:11:26.863Z,9.80
2023-03-05T21:13:54.373Z,10.48
2023-03-05T21:16:25.408Z,10.63
2023-03-05T21:18:54.349Z,10.30
2023-03-05T21:21:21.778Z,10.77
2023-03-05T21:26:16.818Z,11.73
2023-03-05T21:28:44.496Z,12.52
2023-03-05T21:33:43.067Z,11.20
2023-03-05T21:38:37.929Z,12.18
2023-03-05T21:41:05.586Z,11.00
2023-03-05T21:43:33.380Z,11.90
2023-03-05T21:46:03.252Z,11.90
2023-03-05T21:48:31.656Z,11.20
2023-03-05T21:50:59.458Z,10.90
2023-03-05T21:53:27.083Z,11.13
2023-03-05T21:56:07.908Z,12.00
2023-03-05T21:58:35.542Z,11.27
2023-03-05T22:01:03.379Z,11.85
2023-03-05T22:03:31.037Z,11.10
2023-03-05T22:05:58.704Z,11.88
2023-03-05T22:08:26.296Z,11.70
2023-03-05T22:10:54.469Z,11.43
2023-03-05T22:13:21.999Z,11.73
2023-03-05T22:18:23.906Z,11.20
2023-03-05T22:20:52.106Z,11.35
2023-03-05T22:23:22.489Z,10.90
2023-03-05T22:26:01.881Z,11.75
2023-03-05T22:28:30.456Z,11.50
2023-03-05T22:30:58.571Z,11.35
2023-03-05T22:33:27.529Z,10.98
2023-03-05T22:35:55.077Z,10.70
2023-03-05T22:38:23.072Z,11.10
2023-03-05T22:40:51.209Z,10.20
2023-03-05T22:43:19.738Z,11.63
2023-03-05T22:45:47.429Z,12.30
2023-03-05T22:48:15.245Z,10.98
2023-03-05T22:50:44.342Z,10.68
2023-03-05T22:53:12.635Z,10.98
2023-03-05T22:55:41.383Z,10.98
2023-03-05T22:58:09.258Z,11.23
2023-03-05T23:00:37.386Z,11.30
2023-03-05T23:03:06.562Z,10.30
2023-03-05T23:05:35.153Z,11.07
2023-03-05T23:08:02.801Z,10.13
2023-03-05T23:10:30.323Z,10.25
2023-03-05T23:12:59.910Z,11.07
2023-03-05T23:15:34.339Z,11.05
2023-03-05T23:18:02.931Z,10.40
2023-03-05T23:20:36.144Z,11.07
2023-03-05T23:23:04.310Z,11.38
2023-03-05T23:25:34.129Z,11.52
2023-03-05T23:28:02.956Z,10.45
2023-03-05T23:30:37.353Z,9.90
2023-03-05T23:33:04.947Z,10.63
2023-03-05T23:35:43.031Z,10.70
2023-03-05T23:38:14.311Z,9.13
2023-03-05T23:40:54.028Z,11.77
2023-03-05T23:43:24.665Z,11.55
2023-03-05T23:45:55.118Z,10.25
2023-03-05T23:48:24.787Z,10.35
2023-03-05T23:50:52.747Z,10.60
2023-03-05T23:53:29.691Z,10.65
2023-03-05T23:55:57.483Z,9.60
2023-03-05T23:58:25.069Z,9.93
